Terminal Aerodrome Forecast
Issued by NWS

Home | Current Version | Previous Version | Text Only | Print | Product List | Glossary On
Versions: 1 2 3 4 5 6 7 8 9 10 11 12 13 14 15
000
FTUS46 KLOX 250400 AAA
TAFWJF
TAF AMD
KWJF 250403Z 2504/2524 22014G22KT P6SM SCT250
     FM250600 23020G30KT P6SM SCT250
     FM251500 25027G34KT P6SM SCT250
     FM252100 24034G42KT 3SM BLDU SCT050=

USA.gov is the U.S. government's official web portal to all federal, state and local government web resources and services.